Terminal Aerodrome Forecast
Issued by NWS

Current Version | Previous Version | Text Only | Print | Product List | Glossary Off
Versions: 1 2 3 4 5 6 7 8 9 10 11 12 13 14 15 16 17 18 19 20 21 22 23 24

413
FTUS41 KPBZ 190525
TAFHLG
TAF
KHLG 190525Z 1906/2006 25006KT P6SM OVC008
     FM191500 24003KT P6SM BKN015
     FM191800 18003KT P6SM SCT040
     FM200100 09003KT P6SM SCT250=

USA.gov is the U.S. government's official web portal to all federal, state and local government web resources and services.